Terminal Aerodrome Forecast
Issued by NWS Charleston, SC

Home | Current Version | Previous Version | Text Only | Print | Product List | Glossary On
Versions: 1 2 3 4 5 6 7 8 9 10 11 12 13 14 15 16 17 18 19
000
FTUS42 KCHS 301732
TAFCHS
TAF
KCHS 301732Z 3018/0118 21012G18KT P6SM SCT050
     FM302200 21009KT P6SM VCTS SCT035CB BKN060
     FM010200 24006KT P6SM FEW040 BKN150
     FM011400 26010KT P6SM SCT040=

USA.gov is the U.S. government's official web portal to all federal, state and local government web resources and services.